Stettler, Canada
Current Conditions -  °F | °C
As of 1:00 AM on Sunday 23 Nov 2014 (Local Time) from CYQF Reporting Station
Overcast Overcast  
Wind Chill: 12°   Ceiling: 3200
Heat Index: 23°   Visibility: 15mi
Dew Point: 16°   Wind: 12mph
Humidity: 74%   Direction: 330°NNW
Pressure: 29.69"   Gusts: 17mph
Location:  52.33°N, 112.68°W
Report Text: CYQF 230800Z 33010G15KT 15SM BKN032 BKN075 OVC140 M05/M09 A2969 RMK SC5AC1AC2 SLP095
Loading
Personal Weather Stations






























Interactive Weather Map New forecast layout! Learn more

10-Day Weather Forecast

Advertisements
Track Severe Weather on mobile